createdAt,value
2024-01-04T00:00:25.102Z,99987.47
2024-01-04T00:02:54.090Z,99984.72
2024-01-04T00:05:22.761Z,99982.22
2024-01-04T00:07:52.882Z,99980.41
2024-01-04T00:10:22.032Z,99988.13
2024-01-04T00:12:53.142Z,99985.56
2024-01-04T00:15:21.856Z,99985.66
2024-01-04T00:17:50.680Z,99976.31
2024-01-04T00:20:19.849Z,99975.47
2024-01-04T00:22:49.377Z,99972.06
2024-01-04T00:25:19.948Z,99973.06
2024-01-04T00:27:48.731Z,99965.06
2024-01-04T00:30:17.577Z,99958.38
2024-01-04T00:32:46.456Z,99961.00
2024-01-04T00:35:16.133Z,99951.63
2024-01-04T00:37:44.685Z,99959.41
2024-01-04T00:40:13.600Z,99955.06
2024-01-04T00:42:43.623Z,99960.25
2024-01-04T00:45:12.789Z,99963.72
2024-01-04T00:47:41.664Z,99964.75
2024-01-04T00:50:11.507Z,99957.97
2024-01-04T00:52:40.072Z,99953.75
2024-01-04T00:55:09.710Z,99945.97
2024-01-04T00:57:38.252Z,99935.63
2024-01-04T01:00:10.460Z,99943.41
2024-01-04T01:02:39.200Z,99946.91
2024-01-04T01:05:09.248Z,99941.66
2024-01-04T01:07:37.853Z,99935.75
2024-01-04T01:10:06.920Z,99929.88
2024-01-04T01:12:35.731Z,99926.47
2024-01-04T01:15:04.483Z,99924.66
2024-01-04T01:17:35.605Z,99931.56
2024-01-04T01:20:04.872Z,99924.75
2024-01-04T01:22:33.573Z,99919.63
2024-01-04T01:25:02.092Z,99925.69
2024-01-04T01:27:30.856Z,99923.13
2024-01-04T01:29:59.509Z,99910.41
2024-01-04T01:32:28.225Z,99922.34
2024-01-04T01:34:59.099Z,99925.84
2024-01-04T01:37:28.238Z,99919.81
2024-01-04T01:39:56.919Z,99912.25
2024-01-04T01:42:25.516Z,99909.69
2024-01-04T01:44:55.170Z,99899.34
2024-01-04T01:47:25.900Z,99898.56
2024-01-04T01:49:55.011Z,99892.47
2024-01-04T01:52:26.306Z,99894.16
2024-01-04T01:54:55.028Z,99885.53
2024-01-04T01:57:23.922Z,99883.13
2024-01-04T01:59:52.650Z,99883.06
2024-01-04T02:02:21.529Z,99884.94
2024-01-04T02:04:50.350Z,99877.19
2024-01-04T02:07:19.295Z,99881.47
2024-01-04T02:09:50.299Z,99878.81
2024-01-04T02:12:19.001Z,99880.59
2024-01-04T02:14:49.626Z,99875.41
2024-01-04T02:17:18.346Z,99883.13
2024-01-04T02:19:49.296Z,99883.16
2024-01-04T02:22:18.752Z,99894.16
2024-01-04T02:24:48.844Z,99884.00
2024-01-04T02:27:19.382Z,99890.84
2024-01-04T02:29:47.978Z,99884.00
2024-01-04T02:32:16.486Z,99865.13
2024-01-04T02:34:45.049Z,99877.19
2024-01-04T02:37:13.596Z,99872.94
2024-01-04T02:39:42.403Z,99874.69
2024-01-04T02:42:12.770Z,99872.09
2024-01-04T02:44:41.085Z,99877.22
2024-01-04T02:47:09.798Z,99875.53
2024-01-04T02:49:38.431Z,99875.47
2024-01-04T02:52:07.800Z,99873.66
2024-01-04T02:54:36.388Z,99866.78
2024-01-04T02:57:05.177Z,99862.47
2024-01-04T02:59:35.626Z,99866.66
2024-01-04T03:02:03.970Z,99870.06
2024-01-04T03:04:32.862Z,99864.97
2024-01-04T03:07:01.391Z,99866.66
2024-01-04T03:09:29.929Z,99853.94
2024-01-04T03:11:58.546Z,99859.06
2024-01-04T03:14:27.104Z,99858.19
2024-01-04T03:16:57.087Z,99854.75
2024-01-04T03:19:25.812Z,99858.19
2024-01-04T03:21:54.466Z,99842.91
2024-01-04T03:24:22.902Z,99849.75
2024-01-04T03:26:51.559Z,99842.06
2024-01-04T03:29:20.332Z,99849.75
2024-01-04T03:31:48.934Z,99842.97
2024-01-04T03:34:19.387Z,99845.47
2024-01-04T03:36:48.148Z,99843.00
2024-01-04T03:39:16.723Z,99842.13
2024-01-04T03:41:45.382Z,99854.97
2024-01-04T03:44:14.029Z,99854.19
2024-01-04T03:46:42.746Z,99856.72
2024-01-04T03:49:12.958Z,99848.25
2024-01-04T03:51:43.164Z,99843.13
2024-01-04T03:54:11.810Z,99844.03
2024-01-04T03:56:40.653Z,99840.66
2024-01-04T03:59:09.400Z,99839.75
2024-01-04T04:01:45.740Z,99844.06
2024-01-04T04:04:18.414Z,99839.81
2024-01-04T04:06:49.170Z,99837.25
2024-01-04T04:09:19.909Z,99838.09
2024-01-04T04:11:50.666Z,99840.66
2024-01-04T04:14:19.597Z,99837.28
2024-01-04T04:16:53.480Z,99827.88
2024-01-04T04:19:22.508Z,99828.78
2024-01-04T04:21:54.210Z,99830.41
2024-01-04T04:24:23.175Z,99822.72
2024-01-04T04:26:52.192Z,99828.72
2024-01-04T04:29:24.196Z,99830.47
2024-01-04T04:31:56.883Z,99828.78
2024-01-04T04:34:25.795Z,99821.97
2024-01-04T04:36:56.214Z,99824.50
2024-01-04T04:39:24.825Z,99830.47
2024-01-04T04:41:54.941Z,99829.66
2024-01-04T04:44:23.784Z,99833.09
2024-01-04T04:46:53.528Z,99840.00
2024-01-04T04:49:24.682Z,99835.75
2024-01-04T04:51:53.756Z,99839.22
2024-01-04T04:54:24.053Z,99834.09
2024-01-04T04:56:53.530Z,99836.63
2024-01-04T04:59:24.571Z,99827.22
2024-01-04T05:01:53.556Z,99819.50
2024-01-04T05:04:22.502Z,99821.22
2024-01-04T05:06:51.976Z,99820.41
2024-01-04T05:09:25.411Z,99819.53
2024-01-04T05:11:54.219Z,99832.41
2024-01-04T05:14:23.383Z,99830.75
2024-01-04T05:16:53.309Z,99826.53
2024-01-04T05:19:22.322Z,99832.50
2024-01-04T05:21:51.644Z,99822.16
2024-01-04T05:24:21.139Z,99823.03
2024-01-04T05:26:53.729Z,99832.50
2024-01-04T05:29:22.227Z,99834.25
2024-01-04T05:31:51.118Z,99833.38
2024-01-04T05:34:19.918Z,99829.91
2024-01-04T05:36:49.070Z,99826.47
2024-01-04T05:39:18.050Z,99832.44
2024-01-04T05:41:47.407Z,99828.19
2024-01-04T05:44:18.276Z,99833.31
2024-01-04T05:46:47.104Z,99823.91
2024-01-04T05:49:16.502Z,99830.75
2024-01-04T05:51:45.728Z,99828.16
2024-01-04T05:54:14.606Z,99831.63
2024-01-04T05:56:46.462Z,99829.06
2024-01-04T05:59:17.384Z,99823.03
2024-01-04T06:01:46.482Z,99832.47
2024-01-04T06:04:15.185Z,99830.81
2024-01-04T06:06:44.228Z,99828.16
2024-01-04T06:09:21.972Z,99832.47
2024-01-04T06:11:52.550Z,99832.47
2024-01-04T06:14:22.825Z,99839.28
2024-01-04T06:16:54.737Z,99834.19
2024-01-04T06:19:25.944Z,99841.91
2024-01-04T06:21:54.973Z,99826.50
2024-01-04T06:24:24.701Z,99829.06
2024-01-04T06:27:00.173Z,99829.84
2024-01-04T06:29:31.269Z,99826.44
2024-01-04T06:32:03.286Z,99827.28
2024-01-04T06:34:33.645Z,99836.72
2024-01-04T06:37:02.618Z,99831.56
2024-01-04T06:39:31.593Z,99835.03
2024-01-04T06:42:00.685Z,99823.03
2024-01-04T06:44:38.468Z,99831.63
2024-01-04T06:47:13.232Z,99835.03
2024-01-04T06:49:43.201Z,99833.28
2024-01-04T06:52:14.437Z,99839.25
2024-01-04T06:54:43.488Z,99840.16
2024-01-04T06:57:12.939Z,99832.47
2024-01-04T06:59:43.663Z,99841.03
2024-01-04T07:02:13.185Z,99844.47
2024-01-04T07:04:42.162Z,99833.38
2024-01-04T07:07:11.264Z,99836.00
2024-01-04T07:09:42.913Z,99833.38
2024-01-04T07:12:14.880Z,99837.66
2024-01-04T07:14:48.275Z,99847.09
2024-01-04T07:17:17.665Z,99842.84
2024-01-04T07:19:46.992Z,99831.84
2024-01-04T07:22:16.897Z,99833.44
2024-01-04T07:24:45.662Z,99833.44
2024-01-04T07:27:14.317Z,99836.88
2024-01-04T07:29:43.238Z,99826.66
2024-01-04T07:32:13.668Z,99830.09
2024-01-04T07:34:43.408Z,99832.63
2024-01-04T07:37:14.798Z,99840.28
2024-01-04T07:39:43.774Z,99842.00
2024-01-04T07:42:12.310Z,99831.81
2024-01-04T07:44:45.379Z,99837.78
2024-01-04T07:47:20.612Z,99830.06
2024-01-04T07:49:50.177Z,99839.53
2024-01-04T07:52:19.072Z,99831.84
2024-01-04T07:54:51.374Z,99831.75
2024-01-04T07:57:20.323Z,99837.88
2024-01-04T07:59:49.102Z,99833.63
2024-01-04T08:02:18.595Z,99838.75
2024-01-04T08:04:48.626Z,99837.88
2024-01-04T08:07:17.350Z,99838.84
2024-01-04T08:09:45.856Z,99833.69
2024-01-04T08:12:14.995Z,99835.38
2024-01-04T08:14:43.747Z,99838.00
2024-01-04T08:17:12.313Z,99837.13
2024-01-04T08:19:41.030Z,99843.16
2024-01-04T08:22:11.162Z,99842.31
2024-01-04T08:24:39.730Z,99842.31
2024-01-04T08:27:08.275Z,99845.81
2024-01-04T08:29:36.901Z,99844.91
2024-01-04T08:32:05.880Z,99843.16
2024-01-04T08:34:34.873Z,99850.06
2024-01-04T08:37:03.359Z,99836.28
2024-01-04T08:39:33.545Z,99839.75
2024-01-04T08:42:02.612Z,99834.59
2024-01-04T08:44:31.188Z,99839.84
2024-01-04T08:46:59.852Z,99842.38
2024-01-04T08:49:28.550Z,99834.63
2024-01-04T08:51:57.781Z,99827.81
2024-01-04T08:54:26.303Z,99836.44
2024-01-04T08:56:56.456Z,99830.41
2024-01-04T08:59:25.280Z,99833.88
2024-01-04T09:01:53.882Z,99827.03
2024-01-04T09:04:22.362Z,99827.91
2024-01-04T09:06:51.145Z,99819.38
2024-01-04T09:09:19.849Z,99824.50
2024-01-04T09:11:50.471Z,99813.41
2024-01-04T09:14:20.544Z,99810.03
2024-01-04T09:16:50.106Z,99811.75
2024-01-04T09:19:19.783Z,99813.50
2024-01-04T09:21:51.057Z,99807.53
2024-01-04T09:24:21.888Z,99811.81
2024-01-04T09:26:50.565Z,99816.94
2024-01-04T09:29:20.753Z,99812.69
2024-01-04T09:31:49.276Z,99816.13
2024-01-04T09:34:17.969Z,99819.56
2024-01-04T09:36:47.101Z,99815.28
2024-01-04T09:39:19.508Z,99818.72
2024-01-04T09:41:50.204Z,99811.00
2024-01-04T09:44:20.385Z,99809.31
2024-01-04T09:46:51.690Z,99811.06
2024-01-04T09:49:23.129Z,99811.94
2024-01-04T09:51:54.394Z,99808.50
2024-01-04T09:54:23.428Z,99801.72
2024-01-04T09:56:53.336Z,99808.63
2024-01-04T09:59:23.714Z,99801.75
2024-01-04T10:01:53.133Z,99808.63
2024-01-04T10:04:22.808Z,99801.72
2024-01-04T10:06:57.155Z,99786.34
2024-01-04T10:09:29.004Z,99788.88
2024-01-04T10:12:07.015Z,99785.44
2024-01-04T10:14:38.560Z,99789.75
2024-01-04T10:17:11.208Z,99783.78
2024-01-04T10:19:42.006Z,99789.72
2024-01-04T10:22:11.042Z,99788.03
2024-01-04T10:24:42.816Z,99772.56
2024-01-04T10:27:17.092Z,99763.19
2024-01-04T10:29:52.195Z,99762.31
2024-01-04T10:32:20.941Z,99756.28
2024-01-04T10:34:49.433Z,99758.03
2024-01-04T10:37:19.501Z,99756.34
2024-01-04T10:39:59.034Z,99753.72
2024-01-04T10:42:27.718Z,99758.88
2024-01-04T10:44:58.449Z,99763.19
2024-01-04T10:47:28.481Z,99771.78
2024-01-04T10:50:01.168Z,99765.78
2024-01-04T10:52:33.068Z,99762.34
2024-01-04T10:55:04.886Z,99757.19
2024-01-04T10:57:38.193Z,99760.63
2024-01-04T11:00:10.238Z,99762.38
2024-01-04T11:02:41.602Z,99760.66
2024-01-04T11:05:13.059Z,99752.06
2024-01-04T11:07:42.644Z,99755.47
2024-01-04T11:10:14.324Z,99745.22
2024-01-04T11:12:43.861Z,99744.34
2024-01-04T11:15:16.028Z,99750.31
2024-01-04T11:18:13.481Z,99741.75
2024-01-04T11:21:06.134Z,99740.06
2024-01-04T11:23:50.440Z,99740.03
2024-01-04T11:26:28.522Z,99728.91
2024-01-04T11:28:59.712Z,99746.03
2024-01-04T11:31:29.914Z,99729.75
2024-01-04T11:33:59.324Z,99721.16
2024-01-04T11:36:28.675Z,99738.28
2024-01-04T11:38:59.331Z,99732.28
2024-01-04T11:41:35.736Z,99729.69
2024-01-04T11:44:17.467Z,99733.13
2024-01-04T11:46:47.841Z,99736.59
2024-01-04T11:49:17.524Z,99734.84
2024-01-04T11:51:49.730Z,99739.09
2024-01-04T11:54:20.091Z,99740.81
2024-01-04T11:56:49.923Z,99738.28
2024-01-04T11:59:45.640Z,99735.66
2024-01-04T12:24:00.348Z,99724.47
2024-01-04T12:26:41.114Z,99734.78
2024-01-04T12:46:34.565Z,99723.63
2024-01-04T13:08:49.019Z,99708.13
2024-01-04T13:11:20.014Z,99707.25
2024-01-04T13:13:52.821Z,99708.09
2024-01-04T13:16:22.319Z,99705.50
2024-01-04T13:18:52.112Z,99714.13
2024-01-04T13:21:22.509Z,99699.53
2024-01-04T13:23:58.720Z,99710.66
2024-01-04T13:26:27.716Z,99708.09
2024-01-04T13:29:01.821Z,99707.22
2024-01-04T13:31:36.904Z,99701.25
2024-01-04T13:34:06.412Z,99703.81
2024-01-04T13:36:35.616Z,99700.38
2024-01-04T13:39:06.932Z,99702.09
2024-01-04T13:41:36.321Z,99708.09
2024-01-04T13:44:08.149Z,99711.50
2024-01-04T13:46:37.138Z,99707.25
2024-01-04T13:49:06.359Z,99702.09
2024-01-04T13:51:40.549Z,99708.97
2024-01-04T13:54:16.329Z,99700.41
2024-01-04T13:56:45.239Z,99698.66
2024-01-04T13:59:14.341Z,99698.69
2024-01-04T14:01:43.301Z,99700.41
2024-01-04T14:04:14.369Z,99699.53
2024-01-04T14:06:45.940Z,99701.25
2024-01-04T14:09:28.517Z,99700.41
2024-01-04T14:12:00.725Z,99706.41
2024-01-04T14:14:33.895Z,99707.28
2024-01-04T14:17:07.088Z,99701.28
2024-01-04T14:19:36.164Z,99694.38
2024-01-04T14:22:05.323Z,99691.84
2024-01-04T14:24:42.727Z,99692.72
2024-01-04T14:27:15.139Z,99671.28
2024-01-04T14:29:44.320Z,99673.00
2024-01-04T14:32:13.314Z,99671.28
2024-01-04T14:34:44.177Z,99661.00
2024-01-04T14:37:13.077Z,99671.28
2024-01-04T14:39:43.342Z,99671.28
2024-01-04T14:42:15.835Z,99665.28
2024-01-04T14:44:47.569Z,99660.13
2024-01-04T14:47:16.515Z,99648.97
2024-01-04T14:49:46.177Z,99654.16
2024-01-04T14:52:15.384Z,99660.16
2024-01-04T14:54:47.087Z,99661.00
2024-01-04T14:57:19.066Z,99659.31
2024-01-04T14:59:52.226Z,99670.47
2024-01-04T15:02:24.174Z,99670.47
2024-01-04T15:04:55.511Z,99666.16
2024-01-04T15:07:29.689Z,99654.19
2024-01-04T15:10:02.902Z,99655.03
2024-01-04T15:12:32.567Z,99656.75
2024-01-04T15:15:16.772Z,99665.34
2024-01-04T15:17:52.349Z,99653.34
2024-01-04T15:20:22.629Z,99650.78
2024-01-04T15:22:51.915Z,99659.38
2024-01-04T15:25:27.746Z,99673.09
2024-01-04T15:27:56.490Z,99660.25
2024-01-04T15:30:25.477Z,99660.22
2024-01-04T15:32:55.610Z,99664.53
2024-01-04T15:35:24.686Z,99656.81
2024-01-04T15:37:58.167Z,99657.69
2024-01-04T15:40:28.693Z,99665.44
2024-01-04T15:42:58.183Z,99668.00
2024-01-04T15:45:27.355Z,99668.00
2024-01-04T15:47:57.277Z,99666.31
2024-01-04T15:50:28.931Z,99658.59
2024-01-04T15:53:00.963Z,99665.47
2024-01-04T15:55:33.121Z,99662.91
2024-01-04T16:18:17.575Z,99662.91
2024-01-04T16:20:50.768Z,99655.19
2024-01-04T16:23:22.229Z,99652.63
2024-01-04T16:25:51.769Z,99655.22
2024-01-04T16:28:27.558Z,99658.66
2024-01-04T16:31:02.301Z,99656.06
2024-01-04T16:33:33.370Z,99664.66
2024-01-04T16:36:04.044Z,99660.34
2024-01-04T16:38:38.599Z,99656.06
2024-01-04T16:41:12.477Z,99656.94
2024-01-04T16:43:44.640Z,99665.53
2024-01-04T16:46:15.149Z,99664.66
2024-01-04T16:48:51.104Z,99667.25
2024-01-04T16:51:24.636Z,99655.25
2024-01-04T16:53:56.964Z,99664.66
2024-01-04T16:56:26.171Z,99653.53
2024-01-04T16:58:56.645Z,99653.53
2024-01-04T17:01:25.361Z,99656.97
2024-01-04T17:04:01.546Z,99658.69
2024-01-04T17:06:31.359Z,99658.69
2024-01-04T17:09:02.212Z,99658.69
2024-01-04T17:11:34.588Z,99654.41
2024-01-04T17:14:03.658Z,99651.81
2024-01-04T17:16:42.685Z,99659.56
2024-01-04T17:40:33.907Z,99653.56
2024-01-04T17:43:09.266Z,99661.31
2024-01-04T17:45:41.015Z,99655.28
2024-01-04T17:48:15.574Z,99651.00
2024-01-04T17:50:46.305Z,99654.41
2024-01-04T17:53:15.383Z,99667.28
2024-01-04T17:55:50.607Z,99661.28
2024-01-04T17:58:20.686Z,99655.28
2024-01-04T18:00:50.778Z,99660.41
2024-01-04T18:03:20.177Z,99663.84
2024-01-04T18:05:55.498Z,99664.72
2024-01-04T18:08:24.906Z,99662.16
2024-01-04T18:10:55.409Z,99660.44
2024-01-04T18:13:24.500Z,99661.31
2024-01-04T18:15:53.620Z,99671.59
2024-01-04T18:18:28.497Z,99664.69
2024-01-04T18:21:00.587Z,99662.09
2024-01-04T18:23:29.487Z,99660.34
2024-01-04T18:26:12.548Z,99662.09
2024-01-04T18:28:46.159Z,99668.09
2024-01-04T18:31:16.225Z,99656.94
2024-01-04T18:33:51.298Z,99664.63
2024-01-04T18:36:24.115Z,99667.22
2024-01-04T19:01:26.405Z,99663.72
2024-01-04T19:04:05.806Z,99660.31
2024-01-04T19:06:35.677Z,99662.00
2024-01-04T19:09:06.987Z,99667.16
2024-01-04T19:11:39.285Z,99668.00
2024-01-04T19:14:12.947Z,99668.88
2024-01-04T19:16:48.731Z,99666.25
2024-01-04T19:19:18.525Z,99664.56
2024-01-04T19:21:50.048Z,99655.94
2024-01-04T19:24:30.828Z,99655.97
2024-01-04T19:26:59.892Z,99663.69
2024-01-04T19:29:31.931Z,99670.59
2024-01-04T19:32:02.516Z,99670.56
2024-01-04T19:34:35.108Z,99669.69
2024-01-04T19:37:04.030Z,99668.00
2024-01-04T19:39:35.698Z,99676.59
2024-01-04T19:42:13.963Z,99675.72
2024-01-04T19:44:44.521Z,99673.13
2024-01-04T19:47:15.455Z,99659.38
2024-01-04T19:49:44.212Z,99661.94
2024-01-04T19:52:13.120Z,99656.78
2024-01-04T19:54:41.931Z,99658.50
2024-01-04T19:57:10.875Z,99661.09
2024-01-04T19:59:39.734Z,99655.06
2024-01-04T20:02:11.482Z,99661.06
2024-01-04T20:04:43.128Z,99659.34
2024-01-04T20:07:17.164Z,99667.09
2024-01-04T20:09:51.121Z,99655.91
2024-01-04T20:12:20.327Z,99664.53
2024-01-04T20:14:54.180Z,99664.53
2024-01-04T20:17:24.414Z,99664.53
2024-01-04T20:19:57.741Z,99665.38
2024-01-04T20:22:29.512Z,99662.81
2024-01-04T20:25:00.242Z,99667.13
2024-01-04T20:27:37.949Z,99655.94
2024-01-04T20:30:15.766Z,99666.25
2024-01-04T20:32:47.758Z,99659.34
2024-01-04T20:35:23.948Z,99665.38
2024-01-04T20:37:55.625Z,99659.34
2024-01-04T20:40:27.566Z,99655.03
2024-01-04T20:42:59.730Z,99652.47
2024-01-04T20:45:28.870Z,99648.16
2024-01-04T20:48:03.171Z,99661.94
2024-01-04T20:50:43.490Z,99656.78
2024-01-04T20:53:15.130Z,99661.06
2024-01-04T20:55:48.996Z,99660.22
2024-01-04T20:58:18.070Z,99660.16
2024-01-04T21:00:47.018Z,99667.97
2024-01-04T21:03:23.962Z,99667.94
2024-01-04T21:05:58.979Z,99662.78
2024-01-04T21:08:34.833Z,99662.72
2024-01-04T21:11:09.254Z,99667.88
2024-01-04T21:13:45.184Z,99661.88
2024-01-04T21:16:20.066Z,99657.56
2024-01-04T21:18:51.997Z,99654.13
2024-01-04T21:21:32.663Z,99651.53
2024-01-04T21:24:25.399Z,99654.13
2024-01-04T21:26:58.328Z,99651.53
2024-01-04T21:29:30.017Z,99655.84
2024-01-04T21:32:02.833Z,99648.97
2024-01-04T21:34:43.805Z,99655.84
2024-01-04T21:37:14.769Z,99658.41
2024-01-04T21:39:46.533Z,99661.00
2024-01-04T21:42:16.224Z,99655.84
2024-01-04T21:44:50.873Z,99657.56
2024-01-04T21:47:26.029Z,99661.88
2024-01-04T21:49:58.232Z,99663.56
2024-01-04T21:52:28.780Z,99662.72
2024-01-04T21:55:04.705Z,99662.72
2024-01-04T21:57:39.704Z,99662.72
2024-01-04T22:00:11.518Z,99651.53
2024-01-04T22:02:46.625Z,99654.94
2024-01-04T22:05:21.210Z,99657.53
2024-01-04T22:07:58.483Z,99655.84
2024-01-04T22:10:28.988Z,99652.41
2024-01-04T22:12:57.825Z,99653.25
2024-01-04T22:15:29.719Z,99652.38
2024-01-04T22:18:12.601Z,99653.16
2024-01-04T22:20:41.733Z,99651.47
2024-01-04T22:23:15.005Z,99649.81
2024-01-04T22:25:44.011Z,99651.50
2024-01-04T22:28:12.805Z,99650.63
2024-01-04T22:30:46.782Z,99654.91
2024-01-04T22:33:18.653Z,99658.38
2024-01-04T22:35:56.307Z,99659.22
2024-01-04T22:38:26.721Z,99653.19
2024-01-04T22:40:58.402Z,99655.78
2024-01-04T22:43:32.788Z,99651.47
2024-01-04T22:46:05.025Z,99660.91
2024-01-04T22:48:36.746Z,99655.75
2024-01-04T22:51:06.632Z,99654.88
2024-01-04T22:53:39.922Z,99658.31
2024-01-04T22:56:09.292Z,99655.78
2024-01-04T22:58:40.980Z,99651.50
2024-01-04T23:01:13.406Z,99658.41
2024-01-04T23:03:48.270Z,99654.09
2024-01-04T23:06:17.465Z,99652.38
2024-01-04T23:08:50.350Z,99647.22
2024-01-04T23:11:19.429Z,99647.22
2024-01-04T23:13:48.042Z,99648.09
2024-01-04T23:16:16.843Z,99642.94
2024-01-04T23:18:45.669Z,99649.84
2024-01-04T23:21:14.518Z,99637.81
2024-01-04T23:23:43.738Z,99637.84
2024-01-04T23:26:13.813Z,99643.00
2024-01-04T23:28:42.512Z,99649.03
2024-01-04T23:31:11.403Z,99642.13
2024-01-04T23:33:43.110Z,99643.88
2024-01-04T23:36:12.625Z,99640.44
2024-01-04T23:38:41.334Z,99633.59
2024-01-04T23:41:10.228Z,99631.88
2024-01-04T23:43:40.827Z,99631.00
2024-01-04T23:46:09.478Z,99637.88
2024-01-04T23:48:38.234Z,99633.59
2024-01-04T23:51:07.469Z,99632.75
2024-01-04T23:53:36.328Z,99625.88
2024-01-04T23:56:05.299Z,99624.16
2024-01-04T23:58:33.910Z,99625.03
